Veteran, Canada
Current Conditions -  °F | °C
As of 10:00 AM on Saturday 25 Oct 2014 (Local Time) from CYKY Reporting Station
Broken Clouds Broken Clouds  
Wind Chill: 27°   Ceiling: 8000
Heat Index: 32°   Visibility: 15mi
Dew Point: 28°   Wind: 5mph
Humidity: 87%   Direction: 50°NE
Pressure: 30.02"   Gusts: NA
Location:  52°N, 111.12°W
Report Text: CYKY 251600Z 05004KT 15SM BKN080 BKN250 00/M02 A3002 RMK AC6CI1 SLP194
Loading
Personal Weather Stations






























Interactive Weather Map
Tropical Storm Tracking
New forecast layout! Learn more

10-Day Weather Forecast

Advertisements
Track Severe Weather on mobile